createdAt,value
2018-06-20T00:00:38.673Z,1020.37
2018-06-20T00:01:38.633Z,1020.36
2018-06-20T00:02:38.593Z,1020.37
2018-06-20T00:03:38.553Z,1020.37
2018-06-20T00:04:38.513Z,1020.36
2018-06-20T00:05:38.474Z,1020.34
2018-06-20T00:06:38.430Z,1020.32
2018-06-20T00:07:38.408Z,1020.35
2018-06-20T00:08:38.367Z,1020.31
2018-06-20T00:09:38.312Z,1020.30
2018-06-20T00:10:38.269Z,1020.26
2018-06-20T00:11:38.230Z,1020.28
2018-06-20T00:12:38.190Z,1020.26
2018-06-20T00:13:38.149Z,1020.24
2018-06-20T00:14:38.107Z,1020.25
2018-06-20T00:15:38.068Z,1020.19
2018-06-20T00:16:38.027Z,1020.19
2018-06-20T00:17:37.988Z,1020.22
2018-06-20T00:18:37.948Z,1020.20
2018-06-20T00:19:37.906Z,1020.17
2018-06-20T00:20:37.867Z,1020.19
2018-06-20T00:21:37.826Z,1020.15
2018-06-20T00:22:37.789Z,1020.09
2018-06-20T00:23:37.747Z,1020.12
2018-06-20T00:24:37.707Z,1020.14
2018-06-20T00:25:37.665Z,1020.12
2018-06-20T00:26:37.629Z,1020.07
2018-06-20T00:27:37.583Z,1020.06
2018-06-20T00:28:37.547Z,1020.07
2018-06-20T00:29:37.504Z,1020.03
2018-06-20T00:30:37.463Z,1020.04
2018-06-20T00:31:37.423Z,1020.01
2018-06-20T00:32:37.436Z,1020.04
2018-06-20T00:33:37.349Z,1020.06
2018-06-20T00:34:37.304Z,1020.01
2018-06-20T00:35:37.263Z,1020.00
2018-06-20T00:36:37.221Z,1019.99
2018-06-20T00:37:37.186Z,1019.99
2018-06-20T00:38:37.150Z,1020.00
2018-06-20T00:39:37.123Z,1020.05
2018-06-20T00:40:37.062Z,1020.04
2018-06-20T00:41:37.021Z,1020.05
2018-06-20T00:42:36.981Z,1019.99
2018-06-20T00:43:36.943Z,1020.00
2018-06-20T00:44:36.896Z,1020.03
2018-06-20T00:45:36.858Z,1020.03
2018-06-20T00:46:36.821Z,1020.03
2018-06-20T00:47:36.778Z,1020.04
2018-06-20T00:48:36.737Z,1020.05
2018-06-20T00:49:36.693Z,1020.04
2018-06-20T00:50:36.655Z,1020.01
2018-06-20T00:51:36.614Z,1020.03
2018-06-20T00:52:36.598Z,1020.01
2018-06-20T00:53:36.534Z,1019.97
2018-06-20T00:54:36.493Z,1019.95
2018-06-20T00:55:36.452Z,1019.96
2018-06-20T00:56:36.413Z,1019.94
2018-06-20T00:57:36.393Z,1019.94
2018-06-20T00:59:36.290Z,1019.93
2018-06-20T01:00:36.250Z,1019.94
2018-06-20T01:01:36.211Z,1019.91
2018-06-20T01:02:36.168Z,1019.94
2018-06-20T01:03:36.129Z,1019.92
2018-06-20T01:04:36.088Z,1019.91
2018-06-20T01:05:36.050Z,1019.95
2018-06-20T01:06:36.008Z,1019.89
2018-06-20T01:07:35.966Z,1019.92
2018-06-20T01:08:35.926Z,1019.88
2018-06-20T01:09:35.891Z,1019.88
2018-06-20T01:10:35.844Z,1019.87
2018-06-20T01:11:35.900Z,1019.92
2018-06-20T01:12:35.763Z,1019.89
2018-06-20T01:13:35.723Z,1019.87
2018-06-20T01:14:35.682Z,1019.88
2018-06-20T01:15:35.642Z,1019.86
2018-06-20T01:16:35.603Z,1019.85
2018-06-20T01:17:35.560Z,1019.84
2018-06-20T01:18:35.521Z,1019.84
2018-06-20T01:19:35.485Z,1019.82
2018-06-20T01:20:35.441Z,1019.78
2018-06-20T01:21:35.401Z,1019.81
2018-06-20T01:22:35.360Z,1019.81
2018-06-20T01:23:35.320Z,1019.82
2018-06-20T01:24:35.281Z,1019.82
2018-06-20T01:25:35.236Z,1019.83
2018-06-20T01:26:35.197Z,1019.80
2018-06-20T01:27:35.157Z,1019.85
2018-06-20T01:28:35.116Z,1019.83
2018-06-20T01:29:35.073Z,1019.81
2018-06-20T01:30:35.034Z,1019.81
2018-06-20T01:31:34.994Z,1019.84
2018-06-20T01:32:34.955Z,1019.83
2018-06-20T01:33:34.913Z,1019.80
2018-06-20T01:34:34.875Z,1019.79
2018-06-20T01:35:34.854Z,1019.81
2018-06-20T01:36:34.793Z,1019.80
2018-06-20T01:37:34.750Z,1019.76
2018-06-20T01:38:35.265Z,1019.77
2018-06-20T01:39:34.669Z,1019.77
2018-06-20T01:40:34.631Z,1019.76
2018-06-20T01:41:34.588Z,1019.72
2018-06-20T01:42:34.548Z,1019.73
2018-06-20T01:43:34.513Z,1019.72
2018-06-20T01:44:34.470Z,1019.72
2018-06-20T01:45:34.429Z,1019.68
2018-06-20T01:46:34.385Z,1019.71
2018-06-20T01:47:34.345Z,1019.66
2018-06-20T01:48:34.303Z,1019.66
2018-06-20T01:49:34.266Z,1019.65
2018-06-20T01:50:34.224Z,1019.67
2018-06-20T01:51:34.181Z,1019.65
2018-06-20T01:52:34.143Z,1019.70
2018-06-20T01:53:34.100Z,1019.70
2018-06-20T01:54:34.066Z,1019.66
2018-06-20T01:55:34.040Z,1019.68
2018-06-20T01:56:33.986Z,1019.71
2018-06-20T01:57:33.940Z,1019.72
2018-06-20T01:58:33.897Z,1019.69
2018-06-20T01:59:33.860Z,1019.69
2018-06-20T02:00:33.818Z,1019.72
2018-06-20T02:01:33.776Z,1019.68
2018-06-20T02:02:33.736Z,1019.67
2018-06-20T02:03:33.698Z,1019.67
2018-06-20T02:04:33.657Z,1019.66
2018-06-20T02:05:33.612Z,1019.67
2018-06-20T02:06:33.573Z,1019.64
2018-06-20T02:07:33.536Z,1019.65
2018-06-20T02:08:33.495Z,1019.64
2018-06-20T02:09:33.452Z,1019.68
2018-06-20T02:10:33.417Z,1019.63
2018-06-20T02:11:33.370Z,1019.65
2018-06-20T02:12:33.333Z,1019.62
2018-06-20T02:13:33.287Z,1019.60
2018-06-20T02:14:33.246Z,1019.62
2018-06-20T02:15:33.210Z,1019.62
2018-06-20T02:16:33.170Z,1019.62
2018-06-20T02:17:33.125Z,1019.63
2018-06-20T02:18:33.085Z,1019.63
2018-06-20T02:19:33.048Z,1019.62
2018-06-20T02:20:33.006Z,1019.61
2018-06-20T02:21:32.967Z,1019.58
2018-06-20T02:22:32.923Z,1019.60
2018-06-20T02:23:32.883Z,1019.59
2018-06-20T02:24:32.847Z,1019.62
2018-06-20T02:25:32.803Z,1019.61
2018-06-20T02:26:32.761Z,1019.58
2018-06-20T02:27:32.721Z,1019.57
2018-06-20T02:28:32.687Z,1019.55
2018-06-20T02:29:32.643Z,1019.59
2018-06-20T02:30:32.598Z,1019.46
2018-06-20T02:31:32.561Z,1019.57
2018-06-20T02:32:32.520Z,1019.51
2018-06-20T02:33:32.480Z,1019.53
2018-06-20T02:34:32.437Z,1019.52
2018-06-20T02:35:32.396Z,1019.52
2018-06-20T02:36:32.361Z,1019.52
2018-06-20T02:37:32.315Z,1019.53
2018-06-20T02:38:32.275Z,1019.49
2018-06-20T02:39:32.234Z,1019.50
2018-06-20T02:40:32.196Z,1019.47
2018-06-20T02:41:32.153Z,1019.47
2018-06-20T02:42:32.111Z,1019.47
2018-06-20T02:43:32.073Z,1019.45
2018-06-20T02:44:32.032Z,1019.44
2018-06-20T02:45:31.992Z,1019.41
2018-06-20T02:46:31.952Z,1019.43
2018-06-20T02:47:31.919Z,1019.45
2018-06-20T02:48:31.870Z,1019.42
2018-06-20T02:49:31.829Z,1019.42
2018-06-20T02:50:31.786Z,1019.39
2018-06-20T02:51:31.754Z,1019.41
2018-06-20T02:52:31.783Z,1019.41
2018-06-20T02:53:31.675Z,1019.37
2018-06-20T02:54:31.629Z,1019.31
2018-06-20T02:55:31.585Z,1019.36
2018-06-20T02:56:31.546Z,1019.37
2018-06-20T02:57:31.502Z,1019.28
2018-06-20T02:58:31.462Z,1019.38
2018-06-20T02:59:31.423Z,1019.39
2018-06-20T03:00:31.386Z,1019.44
2018-06-20T03:01:31.346Z,1019.40
2018-06-20T03:02:31.303Z,1019.35
2018-06-20T03:03:31.264Z,1019.36
2018-06-20T03:04:31.220Z,1019.33
2018-06-20T03:05:31.181Z,1019.35
2018-06-20T03:06:31.157Z,1019.37
2018-06-20T03:07:31.097Z,1019.35
2018-06-20T03:08:31.057Z,1019.36
2018-06-20T03:09:31.020Z,1019.36
2018-06-20T03:10:30.976Z,1019.37
2018-06-20T03:11:30.941Z,1019.28
2018-06-20T03:12:30.896Z,1019.30
2018-06-20T03:13:30.854Z,1019.30
2018-06-20T03:14:30.814Z,1019.30
2018-06-20T03:15:30.774Z,1019.35
2018-06-20T03:16:30.739Z,1019.30
2018-06-20T03:17:30.692Z,1019.30
2018-06-20T03:18:30.652Z,1019.27
2018-06-20T03:19:30.611Z,1019.25
2018-06-20T03:20:30.573Z,1019.26
2018-06-20T03:21:30.537Z,1019.27
2018-06-20T03:22:30.492Z,1019.26
2018-06-20T03:23:30.450Z,1019.22
2018-06-20T03:24:30.411Z,1019.25
2018-06-20T03:25:30.367Z,1019.24
2018-06-20T03:26:30.332Z,1019.25
2018-06-20T03:27:30.287Z,1019.27
2018-06-20T03:28:30.247Z,1019.24
2018-06-20T03:29:30.205Z,1019.24
2018-06-20T03:30:30.164Z,1019.29
2018-06-20T03:31:30.125Z,1019.26
2018-06-20T03:32:30.085Z,1019.27
2018-06-20T03:33:30.043Z,1019.27
2018-06-20T03:34:30.011Z,1019.26
2018-06-20T03:35:29.981Z,1019.26
2018-06-20T03:36:29.929Z,1019.31
2018-06-20T03:37:29.885Z,1019.26
2018-06-20T03:38:29.840Z,1019.27
2018-06-20T03:39:29.801Z,1019.24
2018-06-20T03:40:29.759Z,1019.24
2018-06-20T03:41:29.718Z,1019.25
2018-06-20T03:42:29.681Z,1019.23
2018-06-20T03:43:29.641Z,1019.12
2018-06-20T03:44:29.597Z,1019.23
2018-06-20T03:45:29.557Z,1019.22
2018-06-20T03:46:29.516Z,1019.22
2018-06-20T03:47:29.476Z,1019.21
2018-06-20T03:48:29.437Z,1019.25
2018-06-20T03:49:29.400Z,1019.24
2018-06-20T03:50:29.355Z,1019.22
2018-06-20T03:51:29.314Z,1019.24
2018-06-20T03:52:29.273Z,1019.22
2018-06-20T03:53:29.238Z,1019.20
2018-06-20T03:54:29.193Z,1019.20
2018-06-20T03:55:29.152Z,1019.23
2018-06-20T03:56:29.110Z,1019.22
2018-06-20T03:57:29.070Z,1019.22
2018-06-20T03:58:29.031Z,1019.21
2018-06-20T03:59:28.990Z,1019.20
2018-06-20T04:00:28.949Z,1019.21
2018-06-20T04:01:31.938Z,1019.19
2018-06-20T04:02:28.868Z,1019.17
2018-06-20T04:03:28.828Z,1019.16
2018-06-20T04:04:28.788Z,1019.18
2018-06-20T04:05:28.746Z,1019.19
2018-06-20T04:06:28.710Z,1019.19
2018-06-20T04:07:28.668Z,1019.22
2018-06-20T04:08:28.626Z,1019.22
2018-06-20T04:09:28.587Z,1019.16
2018-06-20T04:10:28.548Z,1019.24
2018-06-20T04:11:28.510Z,1019.22
2018-06-20T04:12:28.463Z,1019.22
2018-06-20T04:13:28.422Z,1019.24
2018-06-20T04:14:28.383Z,1019.22
2018-06-20T04:15:28.342Z,1019.19
2018-06-20T04:16:28.302Z,1019.21
2018-06-20T04:17:28.261Z,1019.26
2018-06-20T04:18:28.222Z,1019.24
2018-06-20T04:19:28.185Z,1019.27
2018-06-20T04:20:28.142Z,1019.24
2018-06-20T04:21:28.101Z,1019.28
2018-06-20T04:22:28.060Z,1019.27
2018-06-20T04:23:28.022Z,1019.23
2018-06-20T04:24:27.981Z,1019.22
2018-06-20T04:25:27.942Z,1019.17
2018-06-20T04:26:27.895Z,1019.18
2018-06-20T04:27:27.856Z,1019.17
2018-06-20T04:28:27.816Z,1019.19
2018-06-20T04:29:27.774Z,1019.14
2018-06-20T04:30:27.735Z,1019.18
2018-06-20T04:31:27.698Z,1019.18
2018-06-20T04:32:27.657Z,1019.16
2018-06-20T04:33:27.612Z,1019.16
2018-06-20T04:34:27.577Z,1019.14
2018-06-20T04:35:27.536Z,1019.14
2018-06-20T04:36:27.493Z,1019.13
2018-06-20T04:37:27.453Z,1019.17
2018-06-20T04:38:27.413Z,1019.15
2018-06-20T04:39:27.372Z,1019.17
2018-06-20T04:40:27.333Z,1019.12
2018-06-20T04:41:27.292Z,1019.11
2018-06-20T04:42:27.250Z,1019.10
2018-06-20T04:43:27.209Z,1019.10
2018-06-20T04:44:27.174Z,1019.10
2018-06-20T04:45:27.129Z,1019.13
2018-06-20T04:46:27.089Z,1019.09
2018-06-20T04:47:27.047Z,1019.13
2018-06-20T04:48:27.014Z,1019.13
2018-06-20T04:49:26.970Z,1019.15
2018-06-20T04:50:26.934Z,1019.12
2018-06-20T04:51:26.890Z,1019.15
2018-06-20T04:52:26.857Z,1019.12
2018-06-20T04:53:26.805Z,1019.13
2018-06-20T04:54:26.773Z,1019.15
2018-06-20T04:55:26.736Z,1019.13
2018-06-20T04:56:26.690Z,1019.14
2018-06-20T04:57:26.646Z,1019.15
2018-06-20T04:58:26.605Z,1019.18
2018-06-20T04:59:26.567Z,1019.15
2018-06-20T05:00:26.526Z,1019.17
2018-06-20T05:01:26.490Z,1019.16
2018-06-20T05:02:26.453Z,1019.16
2018-06-20T05:03:26.409Z,1019.14
2018-06-20T05:04:26.374Z,1019.15
2018-06-20T05:05:26.329Z,1019.13
2018-06-20T05:06:26.285Z,1019.16
2018-06-20T05:07:26.245Z,1019.14
2018-06-20T05:08:26.208Z,1019.13
2018-06-20T05:09:26.164Z,1019.13
2018-06-20T05:10:26.122Z,1019.13
2018-06-20T05:11:26.090Z,1019.10
2018-06-20T05:12:26.054Z,1019.12
2018-06-20T05:13:26.003Z,1019.12
2018-06-20T05:14:25.965Z,1019.08
2018-06-20T05:15:25.924Z,1019.13
2018-06-20T05:16:25.882Z,1019.09
2018-06-20T05:17:25.843Z,1019.08
2018-06-20T05:18:25.804Z,1019.11
2018-06-20T05:19:25.766Z,1019.09
2018-06-20T05:20:25.723Z,1019.06
2018-06-20T05:21:25.702Z,1019.06
2018-06-20T05:22:25.642Z,1019.04
2018-06-20T05:23:25.606Z,1019.03
2018-06-20T05:24:25.564Z,1019.05
2018-06-20T05:25:25.522Z,1019.02
2018-06-20T05:26:25.487Z,1019.06
2018-06-20T05:27:25.447Z,1019.03
2018-06-20T05:28:25.405Z,1019.07
2018-06-20T05:29:25.367Z,1019.05
2018-06-20T05:30:25.324Z,1019.01
2018-06-20T05:31:25.289Z,1019.02
2018-06-20T05:32:25.245Z,1019.06
2018-06-20T05:33:25.206Z,1019.02
2018-06-20T05:34:25.166Z,1019.01
2018-06-20T05:35:25.126Z,1019.00
2018-06-20T05:36:25.087Z,1019.01
2018-06-20T05:37:25.046Z,1019.00
2018-06-20T05:38:25.006Z,1018.99
2018-06-20T05:39:24.965Z,1018.97
2018-06-20T05:40:24.925Z,1019.01
2018-06-20T05:41:24.885Z,1019.04
2018-06-20T05:42:24.848Z,1019.00
2018-06-20T05:43:24.809Z,1018.97
2018-06-20T05:44:24.768Z,1018.98
2018-06-20T05:45:24.726Z,1019.04
2018-06-20T05:46:24.687Z,1018.98
2018-06-20T05:47:24.651Z,1019.01
2018-06-20T05:48:24.608Z,1018.99
2018-06-20T05:49:24.567Z,1019.02
2018-06-20T05:50:24.526Z,1019.03
2018-06-20T05:51:24.487Z,1019.02
2018-06-20T05:52:24.448Z,1019.03
2018-06-20T05:53:24.412Z,1019.03
2018-06-20T05:54:24.371Z,1019.00
2018-06-20T05:55:24.330Z,1019.03
2018-06-20T05:56:24.291Z,1019.04
2018-06-20T05:57:24.250Z,1019.01
2018-06-20T05:58:24.211Z,1019.04
2018-06-20T05:59:24.172Z,1019.03
2018-06-20T06:00:24.134Z,1019.05
2018-06-20T06:01:24.092Z,1019.04
2018-06-20T06:02:24.054Z,1019.04
2018-06-20T06:03:24.015Z,1019.05
2018-06-20T06:04:23.977Z,1019.05
2018-06-20T06:05:23.934Z,1019.06
2018-06-20T06:06:23.895Z,1019.04
2018-06-20T06:07:23.857Z,1019.07
2018-06-20T06:08:23.819Z,1019.07
2018-06-20T06:09:23.775Z,1019.04
2018-06-20T06:10:23.736Z,1018.95
2018-06-20T06:11:23.697Z,1019.05
2018-06-20T06:12:23.660Z,1019.07
2018-06-20T06:13:23.620Z,1019.09
2018-06-20T06:14:23.582Z,1019.03
2018-06-20T06:15:23.540Z,1019.06
2018-06-20T06:16:23.501Z,1019.11
2018-06-20T06:17:23.462Z,1019.07
2018-06-20T06:18:23.424Z,1019.06
2018-06-20T06:19:23.381Z,1019.07
2018-06-20T06:20:23.348Z,1019.05
2018-06-20T06:21:23.306Z,1019.04
2018-06-20T06:22:23.275Z,1019.05
2018-06-20T06:23:23.261Z,1019.05
2018-06-20T06:24:23.192Z,1019.05
2018-06-20T06:25:23.145Z,1019.07
2018-06-20T06:26:23.111Z,1019.06
2018-06-20T06:27:23.071Z,1019.04
2018-06-20T06:28:23.031Z,1019.08
2018-06-20T06:29:22.990Z,1019.10
2018-06-20T06:30:22.954Z,1019.08
2018-06-20T06:31:22.913Z,1019.07
2018-06-20T06:32:22.880Z,1019.13
2018-06-20T06:33:22.841Z,1019.08
2018-06-20T06:34:22.794Z,1019.11
2018-06-20T06:35:22.757Z,1019.09
2018-06-20T06:36:22.717Z,1019.10
2018-06-20T06:37:22.683Z,1019.11
2018-06-20T06:38:22.641Z,1019.10
2018-06-20T06:39:22.600Z,1019.08
2018-06-20T06:40:22.559Z,1019.09
2018-06-20T06:41:22.519Z,1019.15
2018-06-20T06:42:22.484Z,1019.13
2018-06-20T06:43:22.443Z,1019.09
2018-06-20T06:44:22.406Z,1019.15
2018-06-20T06:45:22.378Z,1019.15
2018-06-20T06:46:22.332Z,1019.16
2018-06-20T06:47:22.289Z,1019.16
2018-06-20T06:48:22.248Z,1019.19
2018-06-20T06:49:22.209Z,1019.19
2018-06-20T06:50:22.171Z,1019.19
2018-06-20T06:51:22.135Z,1019.21
2018-06-20T06:52:22.092Z,1019.17
2018-06-20T06:53:22.053Z,1019.18
2018-06-20T06:54:22.014Z,1019.09
2018-06-20T06:55:21.975Z,1019.10
2018-06-20T06:56:21.941Z,1019.10
2018-06-20T06:57:21.897Z,1019.09
2018-06-20T06:58:21.860Z,1019.12
2018-06-20T06:59:21.820Z,1019.06
2018-06-20T07:00:21.782Z,1019.09
2018-06-20T07:01:21.750Z,1019.10
2018-06-20T07:02:21.703Z,1019.07
2018-06-20T07:03:21.666Z,1019.08
2018-06-20T07:04:21.626Z,1019.08
2018-06-20T07:05:21.590Z,1019.06
2018-06-20T07:06:21.553Z,1019.07
2018-06-20T07:07:21.513Z,1019.06
2018-06-20T07:08:21.471Z,1019.04
2018-06-20T07:09:21.442Z,1019.04
2018-06-20T07:10:21.394Z,1019.06
2018-06-20T07:11:21.358Z,1019.03
2018-06-20T07:12:21.315Z,1019.07
2018-06-20T07:13:21.278Z,1019.03
2018-06-20T07:14:21.244Z,1019.07
2018-06-20T07:15:21.226Z,1019.06
2018-06-20T07:16:21.162Z,1019.07
2018-06-20T07:17:21.121Z,1019.02
2018-06-20T07:18:21.082Z,1019.06
2018-06-20T07:19:21.043Z,1019.06
2018-06-20T07:20:21.003Z,1019.06
2018-06-20T07:21:20.966Z,1019.05
2018-06-20T07:22:20.927Z,1019.07
2018-06-20T07:23:20.888Z,1019.07
2018-06-20T07:24:20.906Z,1019.07
2018-06-20T07:25:20.810Z,1019.04
2018-06-20T07:26:20.775Z,1019.05
2018-06-20T07:27:20.737Z,1019.04
2018-06-20T07:28:20.695Z,1019.03
2018-06-20T07:29:20.659Z,1019.01
2018-06-20T07:30:20.620Z,1019.00
2018-06-20T07:31:20.578Z,1019.04
2018-06-20T07:32:20.546Z,1019.05
2018-06-20T07:33:20.500Z,1019.05
2018-06-20T07:34:20.484Z,1019.04
2018-06-20T07:35:20.452Z,1019.00
2018-06-20T07:36:20.486Z,1019.00
2018-06-20T07:37:20.343Z,1019.00
2018-06-20T07:38:20.305Z,1019.02
2018-06-20T07:39:20.270Z,1018.98
2018-06-20T07:40:20.233Z,1019.02
2018-06-20T07:41:20.188Z,1019.01
2018-06-20T07:42:20.149Z,1018.97
2018-06-20T07:43:20.112Z,1018.96
2018-06-20T07:44:20.073Z,1018.93
2018-06-20T07:45:20.038Z,1018.98
2018-06-20T07:46:20.000Z,1018.93
2018-06-20T07:47:19.956Z,1018.94
2018-06-20T07:48:19.956Z,1018.94
2018-06-20T07:49:19.880Z,1018.94
2018-06-20T07:50:19.844Z,1018.92
2018-06-20T07:51:19.801Z,1018.92
2018-06-20T07:52:19.769Z,1018.97
2018-06-20T07:53:19.724Z,1018.92
2018-06-20T07:54:19.688Z,1018.96
2018-06-20T07:55:19.659Z,1018.90
2018-06-20T07:56:19.617Z,1018.93
2018-06-20T07:57:19.578Z,1018.91
2018-06-20T07:58:19.539Z,1018.92
2018-06-20T07:59:19.492Z,1018.87
2018-06-20T08:00:19.470Z,1018.86
2018-06-20T08:01:19.421Z,1018.94
2018-06-20T08:02:19.378Z,1018.92
2018-06-20T08:03:19.340Z,1018.88
2018-06-20T08:04:19.303Z,1018.93
2018-06-20T08:05:19.265Z,1018.86
2018-06-20T08:06:19.255Z,1018.90
2018-06-20T08:07:19.186Z,1018.90
2018-06-20T08:08:19.147Z,1018.87
2018-06-20T08:09:19.108Z,1018.85
2018-06-20T08:10:19.071Z,1018.85
2018-06-20T08:11:19.032Z,1018.82
2018-06-20T08:12:18.998Z,1018.70
2018-06-20T08:13:18.956Z,1018.77
2018-06-20T08:14:18.917Z,1018.75
2018-06-20T08:15:18.879Z,1018.76
2018-06-20T08:16:18.846Z,1018.77
2018-06-20T08:17:18.803Z,1018.74
2018-06-20T08:18:18.766Z,1018.73
2018-06-20T08:19:18.727Z,1018.64
2018-06-20T08:20:18.690Z,1018.80
2018-06-20T08:21:18.650Z,1018.79
2018-06-20T08:22:18.619Z,1018.75
2018-06-20T08:23:18.573Z,1018.83
2018-06-20T08:24:18.537Z,1018.82
2018-06-20T08:25:18.499Z,1018.82
2018-06-20T08:26:18.460Z,1018.79
2018-06-20T08:27:18.423Z,1018.81
2018-06-20T08:28:18.384Z,1018.85
2018-06-20T08:29:18.346Z,1018.74
2018-06-20T08:30:18.310Z,1018.80
2018-06-20T08:31:18.272Z,1018.79
2018-06-20T08:32:18.233Z,1018.78
2018-06-20T08:33:18.193Z,1018.77
2018-06-20T08:34:18.157Z,1018.77
2018-06-20T08:35:18.120Z,1018.72
2018-06-20T08:36:18.082Z,1018.73
2018-06-20T08:37:18.046Z,1018.72
2018-06-20T08:38:18.009Z,1018.62
2018-06-20T08:39:17.969Z,1018.68
2018-06-20T08:40:17.930Z,1018.69
2018-06-20T08:41:17.892Z,1018.66
2018-06-20T08:42:17.855Z,1018.67
2018-06-20T08:43:17.816Z,1018.64
2018-06-20T08:44:17.780Z,1018.66
2018-06-20T08:45:17.746Z,1018.61
2018-06-20T08:46:17.704Z,1018.62
2018-06-20T08:47:17.666Z,1018.61
2018-06-20T08:48:17.637Z,1018.63
2018-06-20T08:49:17.595Z,1018.62
2018-06-20T08:50:17.557Z,1018.63
2018-06-20T08:51:17.520Z,1018.63
2018-06-20T08:52:17.482Z,1018.65
2018-06-20T08:53:17.443Z,1018.54
2018-06-20T08:54:17.406Z,1018.59
2018-06-20T08:55:17.372Z,1018.62
2018-06-20T08:56:17.338Z,1018.63
2018-06-20T08:57:17.294Z,1018.59
2018-06-20T08:58:17.260Z,1018.57
2018-06-20T08:59:17.224Z,1018.55
2018-06-20T09:00:17.190Z,1018.54
2018-06-20T09:01:17.154Z,1018.54
2018-06-20T09:02:17.112Z,1018.53
2018-06-20T09:03:17.075Z,1018.52
2018-06-20T09:04:17.037Z,1018.48
2018-06-20T09:05:17.003Z,1018.53
2018-06-20T09:06:16.964Z,1018.46
2018-06-20T09:07:16.928Z,1018.49
2018-06-20T09:08:16.894Z,1018.45
2018-06-20T09:09:16.855Z,1018.49
2018-06-20T09:10:16.821Z,1018.48
2018-06-20T09:11:16.782Z,1018.45
2018-06-20T09:12:16.747Z,1018.46
2018-06-20T09:13:16.709Z,1018.47
2018-06-20T09:14:16.684Z,1018.45
2018-06-20T09:15:16.636Z,1018.48
2018-06-20T09:16:16.601Z,1018.44
2018-06-20T09:17:16.564Z,1018.44
2018-06-20T09:18:16.524Z,1018.44
2018-06-20T09:19:16.491Z,1018.43
2018-06-20T09:20:16.452Z,1018.41
2018-06-20T09:21:16.416Z,1018.46
2018-06-20T09:22:16.381Z,1018.48
2018-06-20T09:23:16.352Z,1018.41
2018-06-20T09:24:16.310Z,1018.40
2018-06-20T09:25:16.271Z,1018.44
2018-06-20T09:26:16.238Z,1018.45
2018-06-20T09:27:16.206Z,1018.46
2018-06-20T09:28:16.160Z,1018.46
2018-06-20T09:29:16.123Z,1018.46
2018-06-20T09:30:16.088Z,1018.41
2018-06-20T09:31:16.049Z,1018.39
2018-06-20T09:32:16.013Z,1018.38
2018-06-20T09:33:15.975Z,1018.42
2018-06-20T09:34:15.942Z,1018.40
2018-06-20T09:35:15.901Z,1018.37
2018-06-20T09:36:15.875Z,1018.45
2018-06-20T09:37:15.830Z,1018.44
2018-06-20T09:38:15.797Z,1018.42
2018-06-20T09:39:15.755Z,1018.40
2018-06-20T09:40:15.722Z,1018.36
2018-06-20T09:41:15.682Z,1018.37
2018-06-20T09:42:15.648Z,1018.33
2018-06-20T09:43:15.616Z,1018.36
2018-06-20T09:44:15.575Z,1018.32
2018-06-20T09:45:15.542Z,1018.31
2018-06-20T09:46:15.503Z,1018.37
2018-06-20T09:47:15.464Z,1018.33
2018-06-20T09:48:15.427Z,1018.34
2018-06-20T09:49:15.392Z,1018.42
2018-06-20T09:50:15.355Z,1018.36
2018-06-20T09:51:15.318Z,1018.40
2018-06-20T09:52:15.281Z,1018.40
2018-06-20T09:53:15.249Z,1018.36
2018-06-20T09:54:15.224Z,1018.37
2018-06-20T09:55:15.173Z,1018.33
2018-06-20T09:56:15.136Z,1018.35
2018-06-20T09:57:15.100Z,1018.31
2018-06-20T09:58:15.063Z,1018.29
2018-06-20T09:59:15.028Z,1018.33
2018-06-20T10:00:14.995Z,1018.27
2018-06-20T10:01:14.956Z,1018.32
2018-06-20T10:02:14.919Z,1018.33
2018-06-20T10:03:14.881Z,1018.32
2018-06-20T10:04:14.847Z,1018.29
2018-06-20T10:05:14.809Z,1018.31
2018-06-20T10:06:14.779Z,1018.22
2018-06-20T10:07:14.744Z,1018.24
2018-06-20T10:08:14.703Z,1018.21
2018-06-20T10:09:14.666Z,1018.18
2018-06-20T10:10:14.632Z,1018.22
2018-06-20T10:11:14.623Z,1018.18
2018-06-20T10:12:14.560Z,1018.11
2018-06-20T10:13:14.530Z,1018.07
2018-06-20T10:14:14.487Z,1018.08
2018-06-20T10:15:14.457Z,1018.18
2018-06-20T10:16:14.419Z,1018.16
2018-06-20T10:17:14.383Z,1018.18
2018-06-20T10:18:14.353Z,1018.19
2018-06-20T10:19:14.314Z,1018.16
2018-06-20T10:20:14.327Z,1018.18
2018-06-20T10:21:14.313Z,1018.17
2018-06-20T10:22:14.206Z,1018.17
2018-06-20T10:23:14.172Z,1018.19
2018-06-20T10:24:14.139Z,1018.19
2018-06-20T10:25:14.100Z,1018.14
2018-06-20T10:26:14.067Z,1018.17
2018-06-20T10:27:14.029Z,1018.20
2018-06-20T10:28:13.995Z,1018.15
2018-06-20T10:29:13.957Z,1018.13
2018-06-20T10:30:13.923Z,1018.13
2018-06-20T10:31:13.894Z,1018.12
2018-06-20T10:32:13.858Z,1018.12
2018-06-20T10:33:13.820Z,1018.11
2018-06-20T10:34:13.801Z,1018.09
2018-06-20T10:35:13.756Z,1018.14
2018-06-20T10:36:13.712Z,1018.04
2018-06-20T10:37:13.675Z,1018.04
2018-06-20T10:38:13.640Z,1018.03
2018-06-20T10:39:13.609Z,1018.06
2018-06-20T10:40:13.570Z,1018.03
2018-06-20T10:41:13.535Z,1018.04
2018-06-20T10:42:13.501Z,1018.00
2018-06-20T10:43:13.515Z,1018.01
2018-06-20T10:44:13.432Z,1018.02
2018-06-20T10:45:13.401Z,1017.95
2018-06-20T10:46:13.523Z,1018.01
2018-06-20T10:47:13.325Z,1018.04
2018-06-20T10:48:13.292Z,1017.96
2018-06-20T10:49:13.260Z,1017.91
2018-06-20T10:50:13.235Z,1017.88
2018-06-20T10:52:13.154Z,1017.91
2018-06-20T10:53:13.117Z,1017.89
2018-06-20T10:54:13.087Z,1017.93
2018-06-20T10:55:13.050Z,1017.89
2018-06-20T10:56:13.014Z,1017.93
2018-06-20T10:57:12.980Z,1017.90
2018-06-20T10:58:12.945Z,1017.87
2018-06-20T10:59:12.912Z,1017.88
2018-06-20T11:00:12.880Z,1017.81
2018-06-20T11:01:12.844Z,1017.85
2018-06-20T11:02:12.809Z,1017.79
2018-06-20T11:03:12.771Z,1017.81
2018-06-20T11:04:12.748Z,1017.84
2018-06-20T11:05:12.703Z,1017.81
2018-06-20T11:07:12.635Z,1017.77
2018-06-20T11:08:12.601Z,1017.77
2018-06-20T11:09:12.569Z,1017.73
2018-06-20T11:10:12.530Z,1017.73
2018-06-20T11:11:12.498Z,1017.75
2018-06-20T11:12:12.461Z,1017.76
2018-06-20T11:13:12.428Z,1017.74
2018-06-20T11:14:12.394Z,1017.70
2018-06-20T11:15:12.358Z,1017.67
2018-06-20T11:16:12.323Z,1017.70
2018-06-20T11:17:12.292Z,1017.67
2018-06-20T11:18:12.256Z,1017.67
2018-06-20T11:19:12.221Z,1017.70
2018-06-20T11:20:12.194Z,1017.69
2018-06-20T11:21:12.152Z,1017.69
2018-06-20T11:22:12.120Z,1017.66
2018-06-20T11:23:12.170Z,1017.65
2018-06-20T11:24:12.052Z,1017.61
2018-06-20T11:25:12.016Z,1017.60
2018-06-20T11:26:11.983Z,1017.62
2018-06-20T11:27:11.978Z,1017.59
2018-06-20T11:28:11.967Z,1017.60
2018-06-20T11:29:11.887Z,1017.57
2018-06-20T11:30:11.851Z,1017.51
2018-06-20T11:31:11.834Z,1017.49
2018-06-20T11:32:11.783Z,1017.51
2018-06-20T11:33:11.746Z,1017.48
2018-06-20T11:34:11.715Z,1017.38
2018-06-20T11:35:11.680Z,1017.40
2018-06-20T11:36:11.646Z,1017.40
2018-06-20T11:37:11.613Z,1017.38
2018-06-20T11:38:11.579Z,1017.37
2018-06-20T11:39:11.544Z,1017.36
2018-06-20T11:40:11.513Z,1017.42
2018-06-20T11:41:11.529Z,1017.51
2018-06-20T11:42:11.485Z,1017.46
2018-06-20T11:43:11.412Z,1017.42
2018-06-20T11:44:11.380Z,1017.40
2018-06-20T11:45:11.345Z,1017.32
2018-06-20T11:46:11.311Z,1017.37
2018-06-20T11:47:11.281Z,1017.33
2018-06-20T11:48:11.244Z,1017.29
2018-06-20T11:49:11.211Z,1017.30
2018-06-20T11:50:11.181Z,1017.25
2018-06-20T11:51:11.146Z,1017.28
2018-06-20T11:52:11.114Z,1017.28
2018-06-20T11:53:11.079Z,1017.32
2018-06-20T11:54:11.050Z,1017.24
2018-06-20T11:55:11.015Z,1017.27
2018-06-20T11:56:10.983Z,1017.23
2018-06-20T11:57:10.957Z,1017.18
2018-06-20T11:58:10.983Z,1017.20
2018-06-20T11:59:10.882Z,1017.17
2018-06-20T12:00:10.853Z,1017.18
2018-06-20T12:01:10.816Z,1017.12
2018-06-20T12:02:10.785Z,1017.19
2018-06-20T12:03:10.758Z,1017.15
2018-06-20T12:04:10.724Z,1017.18
2018-06-20T12:05:10.693Z,1017.22
2018-06-20T12:06:10.655Z,1017.17
2018-06-20T12:07:10.627Z,1017.17
2018-06-20T12:08:10.591Z,1017.11